sensor_id;sensor_type;location;lat;lon;timestamp;temperature;humidity
40556;DHT22;26250;45.422;11.100;2023-08-08T00:00:45;19.70;70.50
40556;DHT22;26250;45.422;11.100;2023-08-08T00:03:13;19.60;70.90
40556;DHT22;26250;45.422;11.100;2023-08-08T00:05:40;19.40;69.90
40556;DHT22;26250;45.422;11.100;2023-08-08T00:08:07;19.50;69.60
40556;DHT22;26250;45.422;11.100;2023-08-08T00:10:34;19.70;69.40
40556;DHT22;26250;45.422;11.100;2023-08-08T00:13:01;19.80;69.60
40556;DHT22;26250;45.422;11.100;2023-08-08T00:15:28;19.80;69.80
40556;DHT22;26250;45.422;11.100;2023-08-08T00:17:58;20.00;70.00
40556;DHT22;26250;45.422;11.100;2023-08-08T00:20:25;20.00;69.60
40556;DHT22;26250;45.422;11.100;2023-08-08T00:22:52;20.00;70.60
40556;DHT22;26250;45.422;11.100;2023-08-08T00:25:19;20.00;69.60
40556;DHT22;26250;45.422;11.100;2023-08-08T00:27:46;19.80;70.20
40556;DHT22;26250;45.422;11.100;2023-08-08T00:30:13;19.60;71.20
40556;DHT22;26250;45.422;11.100;2023-08-08T00:32:40;19.50;70.00
40556;DHT22;26250;45.422;11.100;2023-08-08T00:35:08;19.70;70.30
40556;DHT22;26250;45.422;11.100;2023-08-08T00:37:35;19.60;68.20
40556;DHT22;26250;45.422;11.100;2023-08-08T00:40:02;19.50;69.40
40556;DHT22;26250;45.422;11.100;2023-08-08T00:42:29;19.70;67.80
40556;DHT22;26250;45.422;11.100;2023-08-08T00:44:56;19.70;70.40
40556;DHT22;26250;45.422;11.100;2023-08-08T00:47:30;19.80;70.00
40556;DHT22;26250;45.422;11.100;2023-08-08T00:49:57;19.70;69.30
40556;DHT22;26250;45.422;11.100;2023-08-08T00:52:24;19.50;71.50
40556;DHT22;26250;45.422;11.100;2023-08-08T00:54:52;19.30;71.20
40556;DHT22;26250;45.422;11.100;2023-08-08T00:57:20;19.40;71.40
40556;DHT22;26250;45.422;11.100;2023-08-08T00:59:48;19.50;71.90
40556;DHT22;26250;45.422;11.100;2023-08-08T01:02:15;19.60;70.60
40556;DHT22;26250;45.422;11.100;2023-08-08T01:04:42;19.70;71.70
40556;DHT22;26250;45.422;11.100;2023-08-08T01:10:14;19.70;69.60
40556;DHT22;26250;45.422;11.100;2023-08-08T01:12:46;19.80;69.10
40556;DHT22;26250;45.422;11.100;2023-08-08T01:15:17;19.80;70.60
40556;DHT22;26250;45.422;11.100;2023-08-08T01:17:46;19.60;71.40
40556;DHT22;26250;45.422;11.100;2023-08-08T01:20:14;19.40;71.40
40556;DHT22;26250;45.422;11.100;2023-08-08T01:23:23;19.30;71.30
40556;DHT22;26250;45.422;11.100;2023-08-08T01:25:47;19.10;69.90
40556;DHT22;26250;45.422;11.100;2023-08-08T01:28:14;19.10;71.10
40556;DHT22;26250;45.422;11.100;2023-08-08T01:30:43;19.20;70.10
40556;DHT22;26250;45.422;11.100;2023-08-08T01:33:10;19.30;69.00
40556;DHT22;26250;45.422;11.100;2023-08-08T01:35:38;19.40;69.30
40556;DHT22;26250;45.422;11.100;2023-08-08T01:40:57;19.30;71.10
40556;DHT22;26250;45.422;11.100;2023-08-08T01:43:26;19.00;70.50
40556;DHT22;26250;45.422;11.100;2023-08-08T01:45:54;19.00;70.90
40556;DHT22;26250;45.422;11.100;2023-08-08T01:48:22;19.00;69.70
40556;DHT22;26250;45.422;11.100;2023-08-08T01:50:49;19.20;69.40
40556;DHT22;26250;45.422;11.100;2023-08-08T01:53:16;19.00;68.30
40556;DHT22;26250;45.422;11.100;2023-08-08T01:55:43;19.00;68.60
40556;DHT22;26250;45.422;11.100;2023-08-08T01:58:11;19.10;69.20
40556;DHT22;26250;45.422;11.100;2023-08-08T02:00:38;19.30;68.80
40556;DHT22;26250;45.422;11.100;2023-08-08T02:03:06;19.40;70.00
40556;DHT22;26250;45.422;11.100;2023-08-08T02:05:34;19.40;70.30
40556;DHT22;26250;45.422;11.100;2023-08-08T02:08:01;19.40;70.00
40556;DHT22;26250;45.422;11.100;2023-08-08T02:10:29;19.30;69.20
40556;DHT22;26250;45.422;11.100;2023-08-08T02:12:56;19.00;70.40
40556;DHT22;26250;45.422;11.100;2023-08-08T02:15:23;19.10;71.00
40556;DHT22;26250;45.422;11.100;2023-08-08T02:17:50;19.00;70.40
40556;DHT22;26250;45.422;11.100;2023-08-08T02:20:17;19.10;69.70
40556;DHT22;26250;45.422;11.100;2023-08-08T02:22:45;19.20;69.70
40556;DHT22;26250;45.422;11.100;2023-08-08T02:25:12;19.10;69.00
40556;DHT22;26250;45.422;11.100;2023-08-08T02:27:38;18.90;69.80
40556;DHT22;26250;45.422;11.100;2023-08-08T02:30:09;18.80;70.40
40556;DHT22;26250;45.422;11.100;2023-08-08T02:32:36;19.00;70.60
40556;DHT22;26250;45.422;11.100;2023-08-08T02:35:04;19.10;69.80
40556;DHT22;26250;45.422;11.100;2023-08-08T02:37:31;19.30;67.40
40556;DHT22;26250;45.422;11.100;2023-08-08T02:39:58;19.50;66.60
40556;DHT22;26250;45.422;11.100;2023-08-08T02:42:27;19.60;66.60
40556;DHT22;26250;45.422;11.100;2023-08-08T02:44:54;19.80;66.90
40556;DHT22;26250;45.422;11.100;2023-08-08T02:47:21;19.80;68.30
40556;DHT22;26250;45.422;11.100;2023-08-08T02:49:49;19.90;66.70
40556;DHT22;26250;45.422;11.100;2023-08-08T02:52:15;20.00;66.70
40556;DHT22;26250;45.422;11.100;2023-08-08T02:54:42;20.10;68.10
40556;DHT22;26250;45.422;11.100;2023-08-08T02:57:09;20.10;66.20
40556;DHT22;26250;45.422;11.100;2023-08-08T02:59:40;20.20;66.70
40556;DHT22;26250;45.422;11.100;2023-08-08T03:02:07;20.20;67.40
40556;DHT22;26250;45.422;11.100;2023-08-08T03:04:36;20.20;67.10
40556;DHT22;26250;45.422;11.100;2023-08-08T03:07:05;20.10;67.00
40556;DHT22;26250;45.422;11.100;2023-08-08T03:09:35;20.00;67.70
40556;DHT22;26250;45.422;11.100;2023-08-08T03:12:02;20.00;68.10
40556;DHT22;26250;45.422;11.100;2023-08-08T03:14:32;19.90;68.40
40556;DHT22;26250;45.422;11.100;2023-08-08T03:17:02;20.00;69.20
40556;DHT22;26250;45.422;11.100;2023-08-08T03:19:30;20.00;69.10
40556;DHT22;26250;45.422;11.100;2023-08-08T03:21:58;20.00;68.90
40556;DHT22;26250;45.422;11.100;2023-08-08T03:24:25;20.00;69.40
40556;DHT22;26250;45.422;11.100;2023-08-08T03:26:53;19.90;69.70
40556;DHT22;26250;45.422;11.100;2023-08-08T03:29:20;19.90;69.50
40556;DHT22;26250;45.422;11.100;2023-08-08T03:31:48;20.00;69.20
40556;DHT22;26250;45.422;11.100;2023-08-08T03:34:16;20.10;68.90
40556;DHT22;26250;45.422;11.100;2023-08-08T03:36:44;20.20;69.50
40556;DHT22;26250;45.422;11.100;2023-08-08T03:39:11;20.10;70.10
40556;DHT22;26250;45.422;11.100;2023-08-08T03:41:38;20.10;70.60
40556;DHT22;26250;45.422;11.100;2023-08-08T03:44:05;20.10;70.40
40556;DHT22;26250;45.422;11.100;2023-08-08T03:46:32;20.10;70.70
40556;DHT22;26250;45.422;11.100;2023-08-08T03:49:00;20.10;71.10
40556;DHT22;26250;45.422;11.100;2023-08-08T03:51:28;20.10;71.10
40556;DHT22;26250;45.422;11.100;2023-08-08T03:53:56;20.10;69.50
40556;DHT22;26250;45.422;11.100;2023-08-08T03:56:23;20.20;70.40
40556;DHT22;26250;45.422;11.100;2023-08-08T03:58:50;20.20;71.30
40556;DHT22;26250;45.422;11.100;2023-08-08T04:01:17;20.20;71.20
40556;DHT22;26250;45.422;11.100;2023-08-08T04:03:44;20.20;71.20
40556;DHT22;26250;45.422;11.100;2023-08-08T04:06:11;20.20;71.60
40556;DHT22;26250;45.422;11.100;2023-08-08T04:08:38;20.10;71.70
40556;DHT22;26250;45.422;11.100;2023-08-08T04:11:07;20.00;71.50
40556;DHT22;26250;45.422;11.100;2023-08-08T04:13:34;20.00;72.10
40556;DHT22;26250;45.422;11.100;2023-08-08T04:16:02;20.10;72.40
40556;DHT22;26250;45.422;11.100;2023-08-08T04:18:29;20.10;73.50
40556;DHT22;26250;45.422;11.100;2023-08-08T04:20:56;20.10;72.40
40556;DHT22;26250;45.422;11.100;2023-08-08T04:23:23;20.20;72.30
40556;DHT22;26250;45.422;11.100;2023-08-08T04:25:53;20.10;72.70
40556;DHT22;26250;45.422;11.100;2023-08-08T04:28:21;20.20;73.00
40556;DHT22;26250;45.422;11.100;2023-08-08T04:30:48;20.30;71.70
40556;DHT22;26250;45.422;11.100;2023-08-08T04:33:15;20.40;70.10
40556;DHT22;26250;45.422;11.100;2023-08-08T04:35:42;20.60;71.20
40556;DHT22;26250;45.422;11.100;2023-08-08T04:38:09;20.90;72.90
40556;DHT22;26250;45.422;11.100;2023-08-08T04:40:36;21.20;74.10
40556;DHT22;26250;45.422;11.100;2023-08-08T04:43:05;21.30;70.50
40556;DHT22;26250;45.422;11.100;2023-08-08T04:45:32;21.40;69.20
40556;DHT22;26250;45.422;11.100;2023-08-08T04:48:01;21.30;71.30
40556;DHT22;26250;45.422;11.100;2023-08-08T04:50:28;21.30;70.50
40556;DHT22;26250;45.422;11.100;2023-08-08T04:52:55;21.50;76.60
40556;DHT22;26250;45.422;11.100;2023-08-08T04:55:22;21.60;70.70
40556;DHT22;26250;45.422;11.100;2023-08-08T04:57:52;21.80;71.10
40556;DHT22;26250;45.422;11.100;2023-08-08T05:00:19;21.80;69.60
40556;DHT22;26250;45.422;11.100;2023-08-08T05:02:46;21.90;76.20
40556;DHT22;26250;45.422;11.100;2023-08-08T05:05:13;21.90;74.40
40556;DHT22;26250;45.422;11.100;2023-08-08T05:07:41;21.90;73.70
40556;DHT22;26250;45.422;11.100;2023-08-08T05:10:08;22.10;68.70
40556;DHT22;26250;45.422;11.100;2023-08-08T05:12:35;22.30;66.10
40556;DHT22;26250;45.422;11.100;2023-08-08T05:15:02;22.50;65.80
40556;DHT22;26250;45.422;11.100;2023-08-08T05:17:30;22.50;65.30
40556;DHT22;26250;45.422;11.100;2023-08-08T05:19:58;22.50;65.90
40556;DHT22;26250;45.422;11.100;2023-08-08T05:22:28;22.40;66.80
40556;DHT22;26250;45.422;11.100;2023-08-08T05:24:55;22.40;65.70
40556;DHT22;26250;45.422;11.100;2023-08-08T05:27:22;22.50;65.60
40556;DHT22;26250;45.422;11.100;2023-08-08T05:29:49;22.60;65.70
40556;DHT22;26250;45.422;11.100;2023-08-08T05:32:16;23.10;65.50
40556;DHT22;26250;45.422;11.100;2023-08-08T05:34:43;23.40;64.00
40556;DHT22;26250;45.422;11.100;2023-08-08T05:37:10;23.50;63.60
40556;DHT22;26250;45.422;11.100;2023-08-08T05:39:43;23.50;64.30
40556;DHT22;26250;45.422;11.100;2023-08-08T05:42:13;23.40;64.20
40556;DHT22;26250;45.422;11.100;2023-08-08T05:44:41;23.50;64.40
40556;DHT22;26250;45.422;11.100;2023-08-08T05:47:08;23.70;63.90
40556;DHT22;26250;45.422;11.100;2023-08-08T05:49:35;23.70;64.10
40556;DHT22;26250;45.422;11.100;2023-08-08T05:52:03;23.80;62.50
40556;DHT22;26250;45.422;11.100;2023-08-08T05:54:30;23.70;63.30
40556;DHT22;26250;45.422;11.100;2023-08-08T05:57:00;23.60;62.90
40556;DHT22;26250;45.422;11.100;2023-08-08T05:59:27;23.50;62.90
40556;DHT22;26250;45.422;11.100;2023-08-08T06:01:54;23.30;63.60
40556;DHT22;26250;45.422;11.100;2023-08-08T06:04:23;23.20;63.50
40556;DHT22;26250;45.422;11.100;2023-08-08T06:06:50;23.00;62.40
40556;DHT22;26250;45.422;11.100;2023-08-08T06:09:17;23.00;62.50
40556;DHT22;26250;45.422;11.100;2023-08-08T06:11:44;22.90;62.10
40556;DHT22;26250;45.422;11.100;2023-08-08T06:14:11;22.90;61.80
40556;DHT22;26250;45.422;11.100;2023-08-08T06:16:38;22.90;61.30
40556;DHT22;26250;45.422;11.100;2023-08-08T06:19:05;23.00;61.40
40556;DHT22;26250;45.422;11.100;2023-08-08T06:21:32;23.30;62.60
40556;DHT22;26250;45.422;11.100;2023-08-08T06:23:59;23.60;60.10
40556;DHT22;26250;45.422;11.100;2023-08-08T06:26:26;23.80;59.50
40556;DHT22;26250;45.422;11.100;2023-08-08T06:28:53;24.00;59.10
40556;DHT22;26250;45.422;11.100;2023-08-08T06:31:20;24.20;58.30
40556;DHT22;26250;45.422;11.100;2023-08-08T06:33:49;24.40;57.00
40556;DHT22;26250;45.422;11.100;2023-08-08T06:36:16;24.70;56.50
40556;DHT22;26250;45.422;11.100;2023-08-08T06:38:42;25.00;56.20
40556;DHT22;26250;45.422;11.100;2023-08-08T06:41:09;25.10;56.00
40556;DHT22;26250;45.422;11.100;2023-08-08T06:43:39;25.30;55.60
40556;DHT22;26250;45.422;11.100;2023-08-08T06:46:06;25.20;56.30
40556;DHT22;26250;45.422;11.100;2023-08-08T06:48:33;25.20;55.10
40556;DHT22;26250;45.422;11.100;2023-08-08T06:51:00;25.20;55.40
40556;DHT22;26250;45.422;11.100;2023-08-08T06:53:27;25.00;55.20
40556;DHT22;26250;45.422;11.100;2023-08-08T06:55:54;24.90;56.10
40556;DHT22;26250;45.422;11.100;2023-08-08T06:58:21;24.90;55.90
40556;DHT22;26250;45.422;11.100;2023-08-08T07:00:48;24.90;56.60
40556;DHT22;26250;45.422;11.100;2023-08-08T07:03:15;25.10;56.40
40556;DHT22;26250;45.422;11.100;2023-08-08T07:05:42;25.20;56.10
40556;DHT22;26250;45.422;11.100;2023-08-08T07:08:09;25.40;56.00
40556;DHT22;26250;45.422;11.100;2023-08-08T07:10:36;25.60;56.80
40556;DHT22;26250;45.422;11.100;2023-08-08T07:13:05;25.60;57.40
40556;DHT22;26250;45.422;11.100;2023-08-08T07:15:32;25.70;56.50
40556;DHT22;26250;45.422;11.100;2023-08-08T07:17:59;25.80;55.60
40556;DHT22;26250;45.422;11.100;2023-08-08T07:20:28;25.80;56.70
40556;DHT22;26250;45.422;11.100;2023-08-08T07:22:56;25.70;55.40
40556;DHT22;26250;45.422;11.100;2023-08-08T07:25:26;25.80;55.70
40556;DHT22;26250;45.422;11.100;2023-08-08T07:27:53;25.80;55.40
40556;DHT22;26250;45.422;11.100;2023-08-08T07:30:20;25.80;55.70
40556;DHT22;26250;45.422;11.100;2023-08-08T07:32:47;25.80;55.60
40556;DHT22;26250;45.422;11.100;2023-08-08T07:35:14;25.60;56.50
40556;DHT22;26250;45.422;11.100;2023-08-08T07:37:42;25.50;56.00
40556;DHT22;26250;45.422;11.100;2023-08-08T07:40:17;25.50;57.00
40556;DHT22;26250;45.422;11.100;2023-08-08T07:42:47;25.50;56.50
40556;DHT22;26250;45.422;11.100;2023-08-08T07:45:15;25.50;57.20
40556;DHT22;26250;45.422;11.100;2023-08-08T07:47:45;25.60;57.30
40556;DHT22;26250;45.422;11.100;2023-08-08T07:50:12;25.60;57.70
40556;DHT22;26250;45.422;11.100;2023-08-08T07:52:40;25.70;57.90
40556;DHT22;26250;45.422;11.100;2023-08-08T07:55:10;25.60;57.20
40556;DHT22;26250;45.422;11.100;2023-08-08T07:57:37;25.50;58.50
40556;DHT22;26250;45.422;11.100;2023-08-08T08:00:05;25.50;58.40
40556;DHT22;26250;45.422;11.100;2023-08-08T08:02:38;25.60;58.30
40556;DHT22;26250;45.422;11.100;2023-08-08T08:05:05;25.70;58.70
40556;DHT22;26250;45.422;11.100;2023-08-08T08:07:35;25.70;58.90
40556;DHT22;26250;45.422;11.100;2023-08-08T08:10:03;25.80;58.60
40556;DHT22;26250;45.422;11.100;2023-08-08T08:12:31;25.80;59.70
40556;DHT22;26250;45.422;11.100;2023-08-08T08:14:58;25.70;60.70
40556;DHT22;26250;45.422;11.100;2023-08-08T08:17:28;25.70;60.60
40556;DHT22;26250;45.422;11.100;2023-08-08T08:19:55;25.70;61.40
40556;DHT22;26250;45.422;11.100;2023-08-08T08:22:22;25.70;61.20
40556;DHT22;26250;45.422;11.100;2023-08-08T08:24:49;25.50;61.30
40556;DHT22;26250;45.422;11.100;2023-08-08T08:27:18;25.50;62.00
40556;DHT22;26250;45.422;11.100;2023-08-08T08:29:45;25.50;62.90
40556;DHT22;26250;45.422;11.100;2023-08-08T08:32:12;25.50;64.30
40556;DHT22;26250;45.422;11.100;2023-08-08T08:34:39;25.40;64.00
40556;DHT22;26250;45.422;11.100;2023-08-08T08:37:08;25.30;64.70
40556;DHT22;26250;45.422;11.100;2023-08-08T08:39:35;25.30;66.00
40556;DHT22;26250;45.422;11.100;2023-08-08T08:42:02;25.20;65.80
40556;DHT22;26250;45.422;11.100;2023-08-08T08:44:32;25.10;67.20
40556;DHT22;26250;45.422;11.100;2023-08-08T08:47:03;25.10;66.10
40556;DHT22;26250;45.422;11.100;2023-08-08T08:49:32;25.00;66.70
40556;DHT22;26250;45.422;11.100;2023-08-08T08:51:59;25.00;67.20
40556;DHT22;26250;45.422;11.100;2023-08-08T08:54:32;25.00;68.70
40556;DHT22;26250;45.422;11.100;2023-08-08T08:56:59;25.00;68.30
40556;DHT22;26250;45.422;11.100;2023-08-08T08:59:26;25.10;67.70
40556;DHT22;26250;45.422;11.100;2023-08-08T09:01:54;25.10;68.30
40556;DHT22;26250;45.422;11.100;2023-08-08T09:04:24;25.20;67.60
40556;DHT22;26250;45.422;11.100;2023-08-08T09:06:51;25.10;68.10
40556;DHT22;26250;45.422;11.100;2023-08-08T09:09:18;25.20;67.90
40556;DHT22;26250;45.422;11.100;2023-08-08T09:11:49;25.20;68.40
40556;DHT22;26250;45.422;11.100;2023-08-08T09:14:21;25.20;67.70
40556;DHT22;26250;45.422;11.100;2023-08-08T09:16:53;25.30;68.30
40556;DHT22;26250;45.422;11.100;2023-08-08T09:19:21;25.30;68.40
40556;DHT22;26250;45.422;11.100;2023-08-08T09:21:49;25.20;67.60
40556;DHT22;26250;45.422;11.100;2023-08-08T09:24:17;25.30;67.50
40556;DHT22;26250;45.422;11.100;2023-08-08T09:26:44;25.30;67.60
40556;DHT22;26250;45.422;11.100;2023-08-08T09:29:13;25.20;67.90
40556;DHT22;26250;45.422;11.100;2023-08-08T09:31:41;25.30;68.30
40556;DHT22;26250;45.422;11.100;2023-08-08T09:34:08;25.40;68.90
40556;DHT22;26250;45.422;11.100;2023-08-08T09:36:35;25.50;67.90
40556;DHT22;26250;45.422;11.100;2023-08-08T09:39:04;25.60;67.80
40556;DHT22;26250;45.422;11.100;2023-08-08T09:41:31;25.70;65.40
40556;DHT22;26250;45.422;11.100;2023-08-08T09:43:59;25.80;65.80
40556;DHT22;26250;45.422;11.100;2023-08-08T09:46:29;25.80;64.60
40556;DHT22;26250;45.422;11.100;2023-08-08T09:48:58;25.70;64.70
40556;DHT22;26250;45.422;11.100;2023-08-08T09:51:25;25.70;65.30
40556;DHT22;26250;45.422;11.100;2023-08-08T09:53:54;25.70;64.70
40556;DHT22;26250;45.422;11.100;2023-08-08T09:56:23;25.70;64.60
40556;DHT22;26250;45.422;11.100;2023-08-08T09:58:53;25.70;64.40
40556;DHT22;26250;45.422;11.100;2023-08-08T10:01:20;25.80;65.60
40556;DHT22;26250;45.422;11.100;2023-08-08T10:03:49;25.80;63.80
40556;DHT22;26250;45.422;11.100;2023-08-08T10:06:20;25.80;64.30
40556;DHT22;26250;45.422;11.100;2023-08-08T10:08:47;25.70;63.70
40556;DHT22;26250;45.422;11.100;2023-08-08T10:11:14;25.70;64.80
40556;DHT22;26250;45.422;11.100;2023-08-08T10:13:49;25.70;64.80
40556;DHT22;26250;45.422;11.100;2023-08-08T10:16:17;25.70;63.70
40556;DHT22;26250;45.422;11.100;2023-08-08T10:18:46;25.70;65.30
40556;DHT22;26250;45.422;11.100;2023-08-08T10:21:26;25.80;63.60
40556;DHT22;26250;45.422;11.100;2023-08-08T10:24:07;25.80;64.40
40556;DHT22;26250;45.422;11.100;2023-08-08T10:26:57;25.90;63.80
40556;DHT22;26250;45.422;11.100;2023-08-08T10:29:25;26.00;63.20
40556;DHT22;26250;45.422;11.100;2023-08-08T10:32:04;26.00;61.80
40556;DHT22;26250;45.422;11.100;2023-08-08T10:34:39;26.10;61.20
40556;DHT22;26250;45.422;11.100;2023-08-08T10:37:13;26.10;63.30
40556;DHT22;26250;45.422;11.100;2023-08-08T10:40:00;26.00;62.60
40556;DHT22;26250;45.422;11.100;2023-08-08T10:42:28;26.00;64.60
40556;DHT22;26250;45.422;11.100;2023-08-08T10:44:59;25.90;63.20
40556;DHT22;26250;45.422;11.100;2023-08-08T10:47:36;25.90;63.00
40556;DHT22;26250;45.422;11.100;2023-08-08T10:52:49;26.00;61.20
40556;DHT22;26250;45.422;11.100;2023-08-08T10:55:32;25.90;61.10
40556;DHT22;26250;45.422;11.100;2023-08-08T10:58:06;26.00;61.70
40556;DHT22;26250;45.422;11.100;2023-08-08T11:00:36;26.00;61.80
40556;DHT22;26250;45.422;11.100;2023-08-08T11:03:06;26.10;62.80
40556;DHT22;26250;45.422;11.100;2023-08-08T11:05:35;26.00;62.70
40556;DHT22;26250;45.422;11.100;2023-08-08T11:08:06;26.10;62.50
40556;DHT22;26250;45.422;11.100;2023-08-08T11:10:40;26.20;63.50
40556;DHT22;26250;45.422;11.100;2023-08-08T11:13:08;26.20;64.40
40556;DHT22;26250;45.422;11.100;2023-08-08T11:15:36;26.20;62.50
40556;DHT22;26250;45.422;11.100;2023-08-08T11:18:05;26.30;61.00
40556;DHT22;26250;45.422;11.100;2023-08-08T11:20:34;26.40;61.20
40556;DHT22;26250;45.422;11.100;2023-08-08T11:23:01;26.50;61.80
40556;DHT22;26250;45.422;11.100;2023-08-08T11:25:30;26.50;61.30
40556;DHT22;26250;45.422;11.100;2023-08-08T11:27:57;26.50;63.20
40556;DHT22;26250;45.422;11.100;2023-08-08T11:30:29;26.60;62.50
40556;DHT22;26250;45.422;11.100;2023-08-08T11:32:56;26.70;62.90
40556;DHT22;26250;45.422;11.100;2023-08-08T11:35:26;26.70;61.00
40556;DHT22;26250;45.422;11.100;2023-08-08T11:37:57;26.70;60.80
40556;DHT22;26250;45.422;11.100;2023-08-08T11:40:26;26.60;61.70
40556;DHT22;26250;45.422;11.100;2023-08-08T11:42:54;26.60;62.60
40556;DHT22;26250;45.422;11.100;2023-08-08T11:45:23;26.50;62.60
40556;DHT22;26250;45.422;11.100;2023-08-08T11:47:54;26.60;61.20
40556;DHT22;26250;45.422;11.100;2023-08-08T11:50:23;26.50;61.10
40556;DHT22;26250;45.422;11.100;2023-08-08T11:52:52;26.60;61.10
40556;DHT22;26250;45.422;11.100;2023-08-08T11:55:20;26.70;61.80
40556;DHT22;26250;45.422;11.100;2023-08-08T11:57:49;26.70;61.90
40556;DHT22;26250;45.422;11.100;2023-08-08T12:00:19;26.70;63.10
40556;DHT22;26250;45.422;11.100;2023-08-08T12:02:46;26.70;63.10
40556;DHT22;26250;45.422;11.100;2023-08-08T12:05:14;26.60;62.70
40556;DHT22;26250;45.422;11.100;2023-08-08T12:07:44;26.70;62.40
40556;DHT22;26250;45.422;11.100;2023-08-08T12:10:19;26.70;63.00
40556;DHT22;26250;45.422;11.100;2023-08-08T12:12:51;26.70;62.70
40556;DHT22;26250;45.422;11.100;2023-08-08T12:15:19;26.70;64.40
40556;DHT22;26250;45.422;11.100;2023-08-08T12:17:46;26.80;64.50
40556;DHT22;26250;45.422;11.100;2023-08-08T12:20:15;26.70;63.50
40556;DHT22;26250;45.422;11.100;2023-08-08T12:22:42;26.70;63.60
40556;DHT22;26250;45.422;11.100;2023-08-08T12:25:09;26.80;62.10
40556;DHT22;26250;45.422;11.100;2023-08-08T12:27:38;26.80;62.80
40556;DHT22;26250;45.422;11.100;2023-08-08T12:30:06;26.90;63.60
40556;DHT22;26250;45.422;11.100;2023-08-08T12:32:34;26.80;61.80
40556;DHT22;26250;45.422;11.100;2023-08-08T12:35:01;26.80;60.90
40556;DHT22;26250;45.422;11.100;2023-08-08T12:37:28;27.00;60.70
40556;DHT22;26250;45.422;11.100;2023-08-08T12:39:58;27.00;61.00
40556;DHT22;26250;45.422;11.100;2023-08-08T12:42:25;27.10;58.80
40556;DHT22;26250;45.422;11.100;2023-08-08T12:44:53;27.20;59.30
40556;DHT22;26250;45.422;11.100;2023-08-08T12:47:20;27.30;60.20
40556;DHT22;26250;45.422;11.100;2023-08-08T12:49:47;27.30;62.00
40556;DHT22;26250;45.422;11.100;2023-08-08T12:52:14;27.20;64.50
40556;DHT22;26250;45.422;11.100;2023-08-08T12:54:42;27.20;61.50
40556;DHT22;26250;45.422;11.100;2023-08-08T12:57:11;27.30;59.80
40556;DHT22;26250;45.422;11.100;2023-08-08T12:59:38;27.30;58.90
40556;DHT22;26250;45.422;11.100;2023-08-08T13:02:06;27.30;57.60
40556;DHT22;26250;45.422;11.100;2023-08-08T13:04:33;27.40;57.20
40556;DHT22;26250;45.422;11.100;2023-08-08T13:07:00;27.40;57.00
40556;DHT22;26250;45.422;11.100;2023-08-08T13:09:27;27.50;57.10
40556;DHT22;26250;45.422;11.100;2023-08-08T13:11:54;27.50;56.80
40556;DHT22;26250;45.422;11.100;2023-08-08T13:14:21;27.50;55.80
40556;DHT22;26250;45.422;11.100;2023-08-08T13:16:51;27.60;56.00
40556;DHT22;26250;45.422;11.100;2023-08-08T13:19:19;27.60;56.40
40556;DHT22;26250;45.422;11.100;2023-08-08T13:21:48;27.70;55.80
40556;DHT22;26250;45.422;11.100;2023-08-08T13:24:17;27.80;56.00
40556;DHT22;26250;45.422;11.100;2023-08-08T13:26:44;27.70;56.80
40556;DHT22;26250;45.422;11.100;2023-08-08T13:29:11;27.70;57.40
40556;DHT22;26250;45.422;11.100;2023-08-08T13:31:38;27.80;57.20
40556;DHT22;26250;45.422;11.100;2023-08-08T13:34:05;27.80;55.80
40556;DHT22;26250;45.422;11.100;2023-08-08T13:36:32;27.70;57.80
40556;DHT22;26250;45.422;11.100;2023-08-08T13:38:59;27.80;57.40
40556;DHT22;26250;45.422;11.100;2023-08-08T13:41:26;27.90;57.30
40556;DHT22;26250;45.422;11.100;2023-08-08T13:43:53;27.90;57.30
40556;DHT22;26250;45.422;11.100;2023-08-08T13:46:20;27.90;56.80
40556;DHT22;26250;45.422;11.100;2023-08-08T13:48:47;27.90;56.70
40556;DHT22;26250;45.422;11.100;2023-08-08T13:51:14;28.00;56.00
40556;DHT22;26250;45.422;11.100;2023-08-08T13:53:41;28.00;56.10
40556;DHT22;26250;45.422;11.100;2023-08-08T13:56:08;28.00;57.60
40556;DHT22;26250;45.422;11.100;2023-08-08T13:58:37;27.90;57.90
40556;DHT22;26250;45.422;11.100;2023-08-08T14:01:04;27.90;58.20
40556;DHT22;26250;45.422;11.100;2023-08-08T14:03:31;28.00;59.20
40556;DHT22;26250;45.422;11.100;2023-08-08T14:05:58;28.00;58.60
40556;DHT22;26250;45.422;11.100;2023-08-08T14:08:26;28.00;57.80
40556;DHT22;26250;45.422;11.100;2023-08-08T14:10:53;28.10;57.50
40556;DHT22;26250;45.422;11.100;2023-08-08T14:13:20;28.20;57.40
40556;DHT22;26250;45.422;11.100;2023-08-08T14:15:48;28.30;57.50
40556;DHT22;26250;45.422;11.100;2023-08-08T14:18:15;28.30;58.00
40556;DHT22;26250;45.422;11.100;2023-08-08T14:20:42;28.30;57.70
40556;DHT22;26250;45.422;11.100;2023-08-08T14:23:10;28.10;57.00
40556;DHT22;26250;45.422;11.100;2023-08-08T14:25:37;28.10;56.70
40556;DHT22;26250;45.422;11.100;2023-08-08T14:28:04;28.10;56.50
40556;DHT22;26250;45.422;11.100;2023-08-08T14:30:31;28.10;56.80
40556;DHT22;26250;45.422;11.100;2023-08-08T14:32:58;28.10;56.00
40556;DHT22;26250;45.422;11.100;2023-08-08T14:35:28;28.10;56.80
40556;DHT22;26250;45.422;11.100;2023-08-08T14:37:55;28.10;56.90
40556;DHT22;26250;45.422;11.100;2023-08-08T14:40:22;28.20;57.40
40556;DHT22;26250;45.422;11.100;2023-08-08T14:42:51;28.20;57.70
40556;DHT22;26250;45.422;11.100;2023-08-08T14:45:22;28.30;57.70
40556;DHT22;26250;45.422;11.100;2023-08-08T14:47:51;28.40;55.90
40556;DHT22;26250;45.422;11.100;2023-08-08T14:50:18;28.30;57.20
40556;DHT22;26250;45.422;11.100;2023-08-08T14:52:45;28.30;58.40
40556;DHT22;26250;45.422;11.100;2023-08-08T14:55:12;28.20;57.30
40556;DHT22;26250;45.422;11.100;2023-08-08T14:57:39;28.20;57.50
40556;DHT22;26250;45.422;11.100;2023-08-08T15:00:07;28.20;57.70
40556;DHT22;26250;45.422;11.100;2023-08-08T15:02:36;28.30;57.50
40556;DHT22;26250;45.422;11.100;2023-08-08T15:05:03;28.30;56.80
40556;DHT22;26250;45.422;11.100;2023-08-08T15:07:30;28.30;57.00
40556;DHT22;26250;45.422;11.100;2023-08-08T15:09:57;28.30;57.90
40556;DHT22;26250;45.422;11.100;2023-08-08T15:12:24;28.30;57.20
40556;DHT22;26250;45.422;11.100;2023-08-08T15:14:51;28.40;57.30
40556;DHT22;26250;45.422;11.100;2023-08-08T15:17:21;28.40;57.40
40556;DHT22;26250;45.422;11.100;2023-08-08T15:19:48;28.40;57.10
40556;DHT22;26250;45.422;11.100;2023-08-08T15:22:14;28.20;57.60
40556;DHT22;26250;45.422;11.100;2023-08-08T15:24:42;28.10;57.80
40556;DHT22;26250;45.422;11.100;2023-08-08T15:27:10;28.20;58.00
40556;DHT22;26250;45.422;11.100;2023-08-08T15:29:37;28.10;58.80